Time;durP1;ratioP1;P1;durP2;ratioP2;P2;SDS_P1;SDS_P2;PMS_P1;PMS_P2;Temp;Humidity;BMP_temperature;BMP_pressure;BME280_temperature;BME280_humidity;BME280_pressure;Samples;Min_cycle;Max_cycle;Signal;HPM_P1;HPM_P2
2023/05/18 00:02:30;;;;;;;12.87;4.07;;;;;;;7.22;80.16;102589.63;5261826;28;20045;-68
2023/05/18 00:05:03;;;;;;;8.10;3.80;;;;;;;7.16;80.33;102589.41;5262210;28;20377;-67
2023/05/18 00:07:36;;;;;;;12.90;3.65;;;;;;;7.15;81.15;102587.69;5262193;28;20066;-66
2023/05/18 00:10:07;;;;;;;;;;;;;;;7.10;78.54;102587.53;5262520;28;20029;-67
2023/05/18 00:12:39;;;;;;;12.60;3.30;;;;;;;6.93;79.90;102584.41;5262337;28;19939;-68
2023/05/18 00:15:10;;;;;;;10.50;3.80;;;;;;;6.83;81.00;102582.38;5261716;28;20025;-67
2023/05/18 00:17:41;;;;;;;16.30;4.30;;;;;;;6.75;81.06;102586.44;5260619;28;20049;-67
2023/05/18 00:20:14;;;;;;;10.90;3.87;;;;;;;6.85;81.76;102587.63;5260699;28;20400;-67
2023/05/18 00:22:47;;;;;;;9.50;3.83;;;;;;;6.85;81.46;102587.63;5261959;28;20029;-67
2023/05/18 00:25:18;;;;;;;14.27;4.47;;;;;;;6.74;82.06;102587.25;5261882;28;20068;-67
2023/05/18 00:27:50;;;;;;;11.80;4.60;;;;;;;6.71;81.97;102590.66;5260751;28;20056;-67
2023/05/18 00:30:24;;;;;;;14.60;3.80;;;;;;;6.65;82.41;102589.53;5261991;28;20032;-67
2023/05/18 00:32:55;;;;;;;13.43;3.75;;;;;;;6.57;82.38;102595.38;5261909;28;20031;-66
2023/05/18 00:35:27;;;;;;;15.23;4.10;;;;;;;6.57;82.55;102590.19;5261788;28;20120;-66
2023/05/18 00:37:58;;;;;;;10.20;3.90;;;;;;;6.56;83.00;102596.19;5261442;28;20091;-66
2023/05/18 00:40:29;;;;;;;11.80;3.43;;;;;;;6.54;83.57;102595.28;5262029;28;20518;-66
2023/05/18 00:43:01;;;;;;;11.70;3.97;;;;;;;6.47;83.68;102602.78;5261449;28;20035;-67
2023/05/18 00:45:32;;;;;;;8.57;3.30;;;;;;;6.48;83.45;102599.38;5260546;28;20036;-66
2023/05/18 00:48:04;;;;;;;10.80;3.07;;;;;;;6.39;83.20;102600.84;5260417;28;20040;-66
2023/05/18 00:50:37;;;;;;;10.23;4.23;;;;;;;6.43;82.96;102600.94;5261658;28;20405;-66
2023/05/18 00:53:11;;;;;;;14.32;3.35;;;;;;;6.35;83.62;102600.69;5261361;28;20025;-68
2023/05/18 00:55:42;;;;;;;11.10;3.45;;;;;;;6.41;84.06;102605.16;5262984;28;20464;-67
2023/05/18 00:58:14;;;;;;;12.27;4.93;;;;;;;6.40;84.21;102604.28;5265516;28;20033;-67
2023/05/18 01:00:46;;;;;;;11.75;3.75;;;;;;;6.35;84.13;102598.94;5265427;28;20041;-67
2023/05/18 01:03:20;;;;;;;10.97;4.97;;;;;;;6.15;83.41;102605.16;5264187;28;20036;-67
2023/05/18 01:05:54;;;;;;;12.13;3.53;;;;;;;6.28;83.91;102598.69;5247815;28;20035;-66
2023/05/18 01:08:26;;;;;;;9.73;3.55;;;;;;;6.29;84.31;102608.22;5265339;28;20032;-67
2023/05/18 01:11:13;;;;;;;14.80;4.68;;;;;;;6.25;83.56;102608.94;5265359;28;20052;-67
2023/05/18 01:14:05;;;;;;;10.52;3.97;;;;;;;6.13;84.30;102602.50;5265306;28;20504;-67
2023/05/18 01:17:01;;;;;;;13.18;4.00;;;;;;;5.83;85.10;102598.00;5264591;28;20033;-67
2023/05/18 01:19:57;;;;;;;10.45;3.67;;;;;;;5.92;85.33;102604.31;5265540;28;20032;-67
2023/05/18 01:22:49;;;;;;;14.07;4.22;;;;;;;5.94;85.40;102608.75;5252717;28;20385;-66
2023/05/18 01:25:39;;;;;;;12.90;4.07;;;;;;;5.91;86.07;102610.31;5243823;28;20036;-66
2023/05/18 01:28:15;;;;;;;12.95;3.97;;;;;;;5.82;85.88;102605.69;5243961;28;20033;-66
2023/05/18 01:30:47;;;;;;;10.82;3.78;;;;;;;5.76;86.14;102608.94;5244192;28;20461;-67
2023/05/18 01:33:19;;;;;;;7.87;3.60;;;;;;;5.76;86.49;102610.66;5244123;28;20120;-66
2023/05/18 01:35:51;;;;;;;10.35;3.20;;;;;;;5.69;87.18;102608.69;5243980;28;20037;-67
2023/05/18 01:38:26;;;;;;;8.10;3.77;;;;;;;5.63;87.08;102611.91;5243515;28;20045;-67
2023/05/18 01:41:26;;;;;;;16.15;3.85;;;;;;;5.66;87.13;102609.44;5244155;28;20030;-67
2023/05/18 01:44:14;;;;;;;8.68;3.90;;;;;;;5.65;87.38;102608.56;5243928;28;20425;-67
2023/05/18 01:47:13;;;;;;;9.68;4.05;;;;;;;5.67;87.39;102611.22;5243520;28;20493;-67
2023/05/18 01:49:56;;;;;;;10.13;3.35;;;;;;;5.64;88.03;102609.38;5243631;28;20029;-67
2023/05/18 01:52:35;;;;;;;;;;;;;;;5.68;85.88;102609.50;5244257;28;20035;-66
2023/05/18 01:55:08;;;;;;;13.02;3.40;;;;;;;5.57;87.30;102609.09;5243776;28;19917;-67
2023/05/18 01:57:43;;;;;;;9.50;3.53;;;;;;;5.52;88.05;102608.91;5241896;28;20018;-67
2023/05/18 02:00:16;;;;;;;8.43;4.25;;;;;;;5.50;88.26;102610.56;5243169;28;20120;-67
2023/05/18 02:02:48;;;;;;;13.70;5.15;;;;;;;5.48;88.37;102609.63;5242875;28;20476;-67
2023/05/18 02:05:19;;;;;;;10.57;4.47;;;;;;;5.37;88.62;102604.06;5243288;28;20037;-66
2023/05/18 02:07:51;;;;;;;11.77;3.83;;;;;;;5.48;89.56;102601.88;5242669;28;20380;-68
2023/05/18 02:10:22;;;;;;;8.53;4.07;;;;;;;5.44;89.33;102600.00;5243292;28;20472;-66
2023/05/18 02:12:54;;;;;;;12.37;4.87;;;;;;;5.43;89.77;102595.66;5243372;28;20465;-67
2023/05/18 02:15:25;;;;;;;11.70;3.77;;;;;;;5.36;89.95;102593.66;5242859;28;20128;-67
2023/05/18 02:17:56;;;;;;;10.70;3.60;;;;;;;5.32;89.76;102608.19;5242992;28;20029;-67
2023/05/18 02:20:32;;;;;;;10.40;4.30;;;;;;;5.32;90.50;102595.25;5243186;28;20365;-67
2023/05/18 02:23:03;;;;;;;13.05;3.90;;;;;;;5.24;90.50;102587.19;5243078;28;20075;-66
2023/05/18 02:25:35;;;;;;;11.27;3.83;;;;;;;5.22;90.19;102600.91;5243117;28;20041;-67
2023/05/18 02:28:07;;;;;;;10.90;4.15;;;;;;;5.24;90.54;102594.06;5242959;28;20033;-67
2023/05/18 02:30:38;;;;;;;12.97;4.50;;;;;;;5.22;90.38;102582.81;5241483;28;20021;-67
2023/05/18 02:33:10;;;;;;;12.33;4.20;;;;;;;5.22;90.38;102588.84;5242863;28;20050;-67
2023/05/18 02:35:41;;;;;;;11.77;4.47;;;;;;;5.22;90.55;102585.38;5242610;28;20037;-66
2023/05/18 02:38:12;;;;;;;13.10;3.77;;;;;;;5.20;90.63;102587.00;5242601;28;20124;-67
2023/05/18 02:40:44;;;;;;;8.73;4.73;;;;;;;5.26;90.96;102592.41;5242383;28;20037;-68
2023/05/18 02:43:15;;;;;;;12.00;4.60;;;;;;;5.19;91.05;102587.84;5243018;28;20095;-67
2023/05/18 02:45:46;;;;;;;12.77;4.63;;;;;;;5.13;90.73;102575.56;5241084;28;20087;-66
2023/05/18 02:48:18;;;;;;;11.20;4.00;;;;;;;5.14;90.62;102574.75;5242606;28;20025;-68
2023/05/18 02:50:49;;;;;;;13.03;5.37;;;;;;;5.15;91.04;102580.78;5242138;28;20037;-67
2023/05/18 02:53:21;;;;;;;10.53;4.37;;;;;;;5.18;91.39;102586.94;5242230;28;20052;-67
2023/05/18 02:56:01;;;;;;;12.50;4.90;;;;;;;4.98;91.49;102588.78;5242264;28;20342;-66
2023/05/18 02:58:33;;;;;;;11.13;4.28;;;;;;;5.00;91.67;102586.25;5242095;28;20109;-66
2023/05/18 03:01:08;;;;;;;16.83;4.93;;;;;;;4.96;92.27;102582.69;5242053;28;20469;-66
2023/05/18 03:03:40;;;;;;;11.20;4.68;;;;;;;4.97;92.41;102578.38;5242272;28;20053;-67
2023/05/18 03:06:12;;;;;;;13.45;4.32;;;;;;;4.96;93.06;102582.69;5242247;28;20029;-67
2023/05/18 03:08:47;;;;;;;14.20;5.07;;;;;;;4.92;92.70;102585.94;5241135;28;20045;-67
2023/05/18 03:11:20;;;;;;;10.88;4.15;;;;;;;4.86;92.72;102580.53;5240975;28;20069;-66
2023/05/18 03:13:51;;;;;;;11.63;4.15;;;;;;;4.87;92.76;102580.59;5242218;28;20033;-67
2023/05/18 03:16:27;;;;;;;13.73;5.07;;;;;;;4.87;93.24;102584.88;5241340;28;20458;-66
2023/05/18 03:19:00;;;;;;;15.38;4.10;;;;;;;4.84;93.40;102582.19;5240718;28;20029;-67
2023/05/18 03:21:35;;;;;;;16.77;4.57;;;;;;;4.75;93.20;102581.00;5241873;28;20474;-66
2023/05/18 03:24:06;;;;;;;14.65;4.63;;;;;;;4.68;93.38;102584.13;5240742;28;20477;-67
2023/05/18 03:26:40;;;;;;;11.73;3.70;;;;;;;4.67;93.33;102586.66;5240470;28;20118;-68
2023/05/18 03:29:12;;;;;;;19.63;5.13;;;;;;;4.67;93.75;102584.97;5241625;28;20397;-68
2023/05/18 03:31:43;;;;;;;12.70;4.40;;;;;;;4.73;94.14;102592.06;5241858;28;20033;-68
2023/05/18 03:34:15;;;;;;;12.03;4.73;;;;;;;4.70;93.79;102594.53;5241914;28;20362;-67
2023/05/18 03:36:46;;;;;;;13.80;5.70;;;;;;;4.70;94.41;102585.09;5241487;28;20102;-67
2023/05/18 03:39:17;;;;;;;11.27;4.60;;;;;;;4.65;94.13;102584.00;5223755;28;20093;-67
2023/05/18 03:41:49;;;;;;;10.60;4.10;;;;;;;4.55;93.92;102582.75;5241587;28;20087;-67
2023/05/18 03:44:21;;;;;;;15.50;4.43;;;;;;;4.52;94.40;102579.19;5240299;28;20179;-66
2023/05/18 03:46:52;;;;;;;8.60;4.15;;;;;;;4.55;94.49;102587.06;5239909;28;20091;-68
2023/05/18 03:49:24;;;;;;;13.77;5.37;;;;;;;4.49;94.48;102584.22;5240077;28;20486;-67
2023/05/18 03:51:55;;;;;;;12.33;5.10;;;;;;;4.52;95.07;102586.91;5241363;28;20489;-67
2023/05/18 03:54:26;;;;;;;14.73;4.90;;;;;;;4.49;94.76;102589.38;5241328;28;20026;-67
2023/05/18 03:56:58;;;;;;;10.47;4.47;;;;;;;4.43;95.10;102592.59;5240960;28;20029;-67
2023/05/18 03:59:30;;;;;;;11.10;4.17;;;;;;;4.47;95.56;102591.91;5239810;28;20045;-67
2023/05/18 04:02:01;;;;;;;8.53;4.20;;;;;;;4.47;95.69;102589.31;5240840;28;20389;-67
2023/05/18 04:04:32;;;;;;;17.70;4.87;;;;;;;4.39;95.58;102582.94;5241522;28;20508;-66
2023/05/18 04:07:04;;;;;;;9.90;4.23;;;;;;;4.55;95.66;102595.66;5239695;28;20460;-67
2023/05/18 04:09:36;;;;;;;10.75;5.00;;;;;;;4.47;96.18;102596.19;5241170;28;20029;-66
2023/05/18 04:12:07;;;;;;;7.83;4.57;;;;;;;4.48;96.24;102600.53;5241139;28;20476;-68
2023/05/18 04:14:41;;;;;;;16.40;5.50;;;;;;;4.49;96.26;102597.13;5241213;28;20042;-67
2023/05/18 04:17:12;;;;;;;11.70;4.00;;;;;;;4.45;96.42;102603.88;5240707;28;20538;-66
2023/05/18 04:19:43;;;;;;;16.00;5.33;;;;;;;4.46;96.25;102605.66;5241139;28;20069;-67
2023/05/18 04:22:15;;;;;;;12.03;4.90;;;;;;;4.49;96.13;102607.44;5240943;28;20473;-67
2023/05/18 04:24:47;;;;;;;11.45;4.72;;;;;;;4.54;96.27;102609.41;5241062;28;20469;-67
2023/05/18 04:27:19;;;;;;;17.90;5.73;;;;;;;4.61;96.17;102615.72;5240777;28;20036;-67
2023/05/18 04:29:50;;;;;;;14.23;4.70;;;;;;;4.58;96.09;102615.59;5240970;28;20492;-67
2023/05/18 04:32:25;;;;;;;12.07;5.20;;;;;;;4.74;96.20;102610.22;5244723;28;20057;-67
2023/05/18 04:34:57;;;;;;;11.90;4.80;;;;;;;4.81;96.34;102613.94;5244992;28;20033;-66
2023/05/18 04:37:28;;;;;;;11.30;4.30;;;;;;;4.80;95.55;102622.53;5244917;28;20025;-67
2023/05/18 04:40:06;;;;;;;12.30;5.00;;;;;;;4.83;95.85;102614.91;5244720;28;20053;-67
2023/05/18 04:42:43;;;;;;;15.63;5.35;;;;;;;4.78;95.85;102618.97;5244779;28;20418;-68
2023/05/18 04:45:19;;;;;;;10.50;4.57;;;;;;;4.81;95.67;102620.81;5244584;28;20033;-67
2023/05/18 04:47:53;;;;;;;10.98;5.13;;;;;;;4.96;95.44;102616.28;5243993;28;20033;-66
2023/05/18 04:50:24;;;;;;;12.88;5.40;;;;;;;5.00;96.07;102620.72;5244382;28;20044;-65
2023/05/18 04:52:56;;;;;;;15.67;4.90;;;;;;;5.06;95.32;102620.97;5244573;28;20041;-66
2023/05/18 04:55:29;;;;;;;13.73;5.17;;;;;;;5.10;94.61;102630.63;5243256;28;20033;-66
2023/05/18 04:58:01;;;;;;;11.98;4.68;;;;;;;5.15;94.32;102625.59;5242778;28;20072;-67
2023/05/18 05:00:33;;;;;;;16.48;5.85;;;;;;;5.19;93.94;102627.50;5244550;28;20111;-66
2023/05/18 05:03:05;;;;;;;12.03;4.30;;;;;;;5.28;93.83;102629.56;5243071;28;20057;-66
2023/05/18 05:05:36;;;;;;;8.30;4.53;;;;;;;5.43;93.52;102630.16;5244734;28;20056;-67
2023/05/18 05:08:07;;;;;;;12.07;4.80;;;;;;;5.40;93.35;102631.75;5226450;28;20036;-67
2023/05/18 05:10:39;;;;;;;10.77;4.27;;;;;;;5.55;93.54;102632.31;5244332;28;20033;-67
2023/05/18 05:13:10;;;;;;;19.10;5.03;;;;;;;5.58;92.40;102637.59;5244022;28;20148;-66
2023/05/18 05:15:41;;;;;;;12.63;4.57;;;;;;;5.70;92.16;102633.72;5243522;28;20025;-67
2023/05/18 05:18:13;;;;;;;10.97;4.90;;;;;;;5.69;91.57;102638.00;5243740;28;20033;-67
2023/05/18 05:20:44;;;;;;;16.33;5.63;;;;;;;5.82;91.57;102631.59;5244018;28;20037;-67
2023/05/18 05:23:16;;;;;;;16.30;5.20;;;;;;;5.90;91.28;102635.31;5226361;28;20060;-66
2023/05/18 05:25:47;;;;;;;14.27;4.73;;;;;;;5.94;90.72;102633.72;5243664;28;20088;-67
2023/05/18 05:28:18;;;;;;;11.03;4.57;;;;;;;5.98;90.65;102638.22;5243941;28;20034;-67
2023/05/18 05:30:50;;;;;;;11.73;4.90;;;;;;;5.97;89.62;102639.03;5243940;28;20033;-66
2023/05/18 05:33:21;;;;;;;12.37;4.93;;;;;;;6.07;89.50;102635.06;5243911;28;20096;-67
2023/05/18 05:35:53;;;;;;;11.93;4.90;;;;;;;6.05;88.96;102639.31;5243789;28;20041;-66
2023/05/18 05:38:25;;;;;;;16.67;7.13;;;;;;;6.06;88.42;102647.16;5243683;28;20061;-67
2023/05/18 05:40:56;;;;;;;14.00;5.60;;;;;;;6.15;88.67;102642.31;5243567;28;20457;-67
2023/05/18 05:43:28;;;;;;;13.27;4.97;;;;;;;6.31;88.31;102642.81;5239911;28;20038;-67
2023/05/18 05:45:59;;;;;;;12.80;4.73;;;;;;;6.36;88.20;102639.59;5240542;28;20025;-68
2023/05/18 05:48:31;;;;;;;12.80;4.37;;;;;;;6.40;88.15;102640.56;5263086;28;20037;-68
2023/05/18 05:51:02;;;;;;;15.13;6.37;;;;;;;6.55;88.01;102637.59;5263794;28;20075;-66
2023/05/18 05:53:34;;;;;;;15.43;5.97;;;;;;;6.55;87.03;102643.69;5261541;28;20124;-67
2023/05/18 05:56:06;;;;;;;13.87;6.20;;;;;;;6.59;86.45;102643.78;5262405;28;20029;-67
2023/05/18 05:58:37;;;;;;;;;;;;;;;6.73;85.80;102642.53;5263013;28;20025;-68
2023/05/18 06:01:09;;;;;;;12.30;4.82;;;;;;;6.71;85.20;102644.19;5261984;28;19971;-67
2023/05/18 06:03:40;;;;;;;12.80;4.77;;;;;;;6.84;84.85;102646.38;5262122;28;20114;-68
2023/05/18 06:06:12;;;;;;;12.63;4.97;;;;;;;6.90;83.93;102641.34;5261827;28;20036;-68
2023/05/18 06:08:43;;;;;;;9.07;5.37;;;;;;;6.89;83.95;102642.19;5262323;28;20064;-66
2023/05/18 06:11:14;;;;;;;9.67;6.10;;;;;;;6.97;83.35;102642.47;5262669;28;20037;-66
2023/05/18 06:13:46;;;;;;;12.33;4.73;;;;;;;7.11;83.14;102640.28;5257651;28;20068;-67
2023/05/18 06:16:17;;;;;;;13.67;5.07;;;;;;;7.21;82.73;102641.44;5263473;28;20095;-68
2023/05/18 06:18:48;;;;;;;14.83;6.47;;;;;;;7.22;81.26;102638.03;5273393;28;20033;-68
2023/05/18 06:21:20;;;;;;;11.20;5.03;;;;;;;7.41;81.12;102644.66;5255143;28;20045;-66
2023/05/18 06:23:51;;;;;;;11.30;5.27;;;;;;;7.38;79.48;102644.56;5262346;28;20060;-66
2023/05/18 06:26:23;;;;;;;15.97;5.43;;;;;;;7.42;79.47;102638.63;5262616;28;20041;-67
2023/05/18 06:28:54;;;;;;;13.13;5.63;;;;;;;7.52;79.29;102647.56;5261106;28;20449;-67
2023/05/18 06:31:25;;;;;;;13.80;5.60;;;;;;;7.57;80.47;102651.19;5262646;28;20036;-67
2023/05/18 06:33:57;;;;;;;12.97;5.23;;;;;;;7.65;79.38;102653.16;5276928;28;20090;-66
2023/05/18 06:36:28;;;;;;;8.73;4.80;;;;;;;7.69;78.77;102646.34;5261381;28;20033;-67
2023/05/18 06:39:00;;;;;;;13.43;4.63;;;;;;;7.72;79.39;102650.75;5262515;28;20049;-67
2023/05/18 06:41:32;;;;;;;12.70;5.03;;;;;;;7.95;77.94;102654.00;5262269;28;20036;-67
2023/05/18 06:44:03;;;;;;;12.88;4.75;;;;;;;7.94;76.46;102658.31;5261076;28;20352;-66
2023/05/18 06:46:35;;;;;;;12.03;5.40;;;;;;;8.03;76.38;102663.78;5277834;28;20036;-66
2023/05/18 06:49:06;;;;;;;12.80;5.00;;;;;;;8.19;75.77;102659.91;5277435;28;20051;-67
2023/05/18 06:51:37;;;;;;;9.87;4.20;;;;;;;8.35;74.52;102658.56;5261777;28;20041;-68
2023/05/18 06:54:09;;;;;;;14.43;5.60;;;;;;;8.51;74.46;102659.00;5258625;28;20041;-67
2023/05/18 06:56:40;;;;;;;13.43;5.70;;;;;;;8.67;73.98;102657.69;5261638;28;20033;-67
2023/05/18 06:59:11;;;;;;;10.20;5.10;;;;;;;8.76;73.58;102655.31;5262232;28;20159;-66
2023/05/18 07:01:43;;;;;;;18.30;5.20;;;;;;;8.87;72.22;102659.06;5260734;28;20122;-67
2023/05/18 07:04:15;;;;;;;12.40;4.30;;;;;;;8.99;71.87;102658.47;5260993;28;20143;-67
2023/05/18 07:06:46;;;;;;;12.93;5.47;;;;;;;9.17;71.55;102657.13;5262577;28;20383;-66
2023/05/18 07:09:17;;;;;;;16.53;5.10;;;;;;;9.20;69.45;102665.03;5261233;28;20408;-66
2023/05/18 07:11:49;;;;;;;12.00;4.47;;;;;;;9.36;70.58;102669.72;5256863;28;20033;-67
2023/05/18 07:14:20;;;;;;;18.97;5.40;;;;;;;9.47;70.02;102677.78;5241648;28;20389;-67
2023/05/18 07:16:51;;;;;;;13.07;5.53;;;;;;;9.57;68.88;102673.66;5239668;28;20033;-68
2023/05/18 07:19:23;;;;;;;12.77;4.27;;;;;;;9.68;69.11;102675.63;5241302;28;20108;-67
2023/05/18 07:21:55;;;;;;;10.17;4.53;;;;;;;9.84;68.58;102675.97;5241252;28;20087;-67
2023/05/18 07:24:27;;;;;;;13.32;4.40;;;;;;;9.98;67.67;102678.81;5240092;28;20061;-67
2023/05/18 07:26:58;;;;;;;16.70;5.30;;;;;;;10.21;68.35;102682.78;5241468;28;20591;-68
2023/05/18 07:29:29;;;;;;;12.10;4.63;;;;;;;10.27;66.32;102683.72;5241471;28;20476;-66
2023/05/18 07:32:01;;;;;;;12.83;4.60;;;;;;;10.31;66.46;102681.22;5240162;28;20037;-67
2023/05/18 07:34:32;;;;;;;11.97;4.97;;;;;;;10.36;66.65;102684.81;5238547;28;20498;-67
2023/05/18 07:37:03;;;;;;;13.37;4.80;;;;;;;10.45;65.48;102686.72;5260249;28;20044;-67
2023/05/18 07:39:35;;;;;;;12.50;4.17;;;;;;;10.32;63.86;102689.91;5240976;28;20050;-66
2023/05/18 07:42:07;;;;;;;20.03;6.00;;;;;;;10.34;65.82;102683.06;5254404;28;20035;-67
2023/05/18 07:44:38;;;;;;;12.80;4.97;;;;;;;10.59;67.45;102694.78;5261834;28;20036;-66
2023/05/18 07:47:10;;;;;;;12.47;4.73;;;;;;;10.66;64.51;102695.75;5260176;28;20024;-66
2023/05/18 07:49:42;;;;;;;14.33;4.87;;;;;;;10.64;62.46;102697.47;5260558;28;20114;-67
2023/05/18 07:52:14;;;;;;;15.05;4.22;;;;;;;10.84;63.70;102693.50;5260394;28;20039;-67
2023/05/18 07:54:45;;;;;;;12.37;5.07;;;;;;;11.09;62.51;102692.16;5261521;28;20222;-67
2023/05/18 07:57:16;;;;;;;10.57;4.63;;;;;;;11.26;61.98;102692.41;5260606;28;20111;-68
2023/05/18 07:59:48;;;;;;;15.83;6.10;;;;;;;11.25;60.80;102690.66;5261376;28;20071;-66
2023/05/18 08:02:19;;;;;;;20.47;6.60;;;;;;;11.21;61.23;102693.22;5261564;28;20041;-67
2023/05/18 08:04:50;;;;;;;11.97;4.93;;;;;;;11.41;62.10;102694.34;5260213;28;20033;-67
2023/05/18 08:07:25;;;;;;;14.43;4.50;;;;;;;11.34;61.42;102691.66;5265633;28;20488;-67
2023/05/18 08:09:56;;;;;;;15.57;5.15;;;;;;;11.35;60.54;102699.50;5265917;28;20067;-67
2023/05/18 08:12:28;;;;;;;9.33;4.07;;;;;;;11.34;59.32;102702.97;5265812;28;20025;-67
2023/05/18 08:15:00;;;;;;;15.30;4.65;;;;;;;11.51;60.15;102697.97;5266287;28;20025;-67
2023/05/18 08:17:31;;;;;;;20.97;5.63;;;;;;;11.72;60.09;102699.13;5266227;28;20056;-67
2023/05/18 08:20:03;;;;;;;14.40;4.70;;;;;;;11.77;59.61;102694.84;5265108;28;20059;-67
2023/05/18 08:22:35;;;;;;;14.43;4.70;;;;;;;12.08;58.34;102701.38;5266198;28;20025;-67
2023/05/18 08:25:07;;;;;;;13.03;4.60;;;;;;;12.00;55.90;102692.56;5266172;28;20031;-67
2023/05/18 08:27:38;;;;;;;16.25;4.93;;;;;;;12.43;58.61;102694.75;5264836;28;20037;-67
2023/05/18 08:30:10;;;;;;;11.13;4.63;;;;;;;12.40;54.80;102690.38;5265801;28;20508;-68
2023/05/18 08:32:42;;;;;;;10.93;4.80;;;;;;;12.56;54.53;102689.66;5266075;28;20116;-67
2023/05/18 08:35:13;;;;;;;13.77;4.97;;;;;;;12.58;53.64;102676.59;5265747;28;20433;-68
2023/05/18 08:37:45;;;;;;;10.33;4.47;;;;;;;12.57;55.13;102687.91;5264192;28;20353;-68
2023/05/18 08:40:16;;;;;;;18.67;4.97;;;;;;;12.71;54.02;102680.19;5266247;28;20045;-66
2023/05/18 08:43:01;;;;;;;12.80;4.83;;;;;;;12.93;54.14;102676.03;5247239;28;20119;-67
2023/05/18 08:45:41;;;;;;;14.32;4.68;;;;;;;13.28;53.41;102678.00;5265854;28;20064;-68
2023/05/18 08:48:15;;;;;;;14.10;4.82;;;;;;;13.62;52.14;102673.88;5264678;28;20051;-66
2023/05/18 08:50:48;;;;;;;14.23;4.45;;;;;;;13.44;49.49;102671.13;5265746;28;20029;-66
2023/05/18 08:53:20;;;;;;;12.18;3.72;;;;;;;13.48;50.86;102665.06;5264306;28;20556;-68
2023/05/18 08:55:53;;;;;;;12.07;4.55;;;;;;;13.57;49.90;102670.34;5265612;28;20040;-67
2023/05/18 08:58:45;;;;;;;10.77;4.35;;;;;;;13.93;50.61;102668.75;5265163;28;20354;-67
2023/05/18 09:01:17;;;;;;;11.00;4.07;;;;;;;13.77;49.85;102673.06;5262471;28;20120;-67
2023/05/18 09:03:49;;;;;;;13.90;4.03;;;;;;;13.75;48.58;102668.66;5265309;28;20116;-68
2023/05/18 09:06:24;;;;;;;11.77;3.58;;;;;;;13.90;48.77;102668.72;5264684;28;20033;-68
2023/05/18 09:08:58;;;;;;;12.70;4.13;;;;;;;13.47;46.16;102673.78;5264640;28;20017;-67
2023/05/18 09:11:32;;;;;;;14.82;3.83;;;;;;;13.93;48.29;102657.41;5264628;28;20041;-67
2023/05/18 09:14:03;;;;;;;8.38;3.75;;;;;;;14.38;49.26;102669.72;5264819;28;20037;-69
2023/05/18 09:16:35;;;;;;;12.97;3.87;;;;;;;14.45;46.71;102669.75;5264310;28;20037;-68
2023/05/18 09:19:07;;;;;;;9.30;3.97;;;;;;;14.19;45.45;102668.81;5263271;28;20033;-67
2023/05/18 09:21:38;;;;;;;9.27;3.53;;;;;;;14.22;46.13;102665.34;5264807;28;20048;-68
2023/05/18 09:24:10;;;;;;;13.97;3.50;;;;;;;14.42;45.29;102660.09;5265150;28;20033;-69
2023/05/18 09:26:42;;;;;;;12.52;4.22;;;;;;;14.70;45.87;102663.66;5264732;28;20037;-68
2023/05/18 09:29:18;;;;;;;14.37;4.37;;;;;;;14.54;45.10;102662.75;5262546;28;20060;-67
2023/05/18 09:31:50;;;;;;;14.45;5.28;;;;;;;14.43;44.12;102669.75;5262753;28;20066;-67
2023/05/18 09:34:23;;;;;;;16.20;4.18;;;;;;;14.27;45.25;102660.97;5264482;28;20076;-68
2023/05/18 09:36:56;;;;;;;8.32;3.80;;;;;;;14.47;44.66;102657.50;5264549;28;20033;-67
2023/05/18 09:39:27;;;;;;;13.02;3.90;;;;;;;14.39;43.20;102660.09;5263941;28;20079;-67
2023/05/18 09:42:02;;;;;;;10.07;3.80;;;;;;;14.09;43.47;102658.28;5264325;28;20045;-67
2023/05/18 09:44:34;;;;;;;10.05;3.72;;;;;;;14.25;43.47;102659.19;5263895;28;20029;-67
2023/05/18 09:47:09;;;;;;;10.63;3.33;;;;;;;14.90;44.62;102650.50;5264163;28;20091;-67
2023/05/18 09:49:40;;;;;;;10.77;3.80;;;;;;;15.54;43.20;102653.88;5264064;28;20075;-67
2023/05/18 09:52:12;;;;;;;15.50;4.43;;;;;;;16.53;42.53;102648.09;5264221;28;20032;-67
2023/05/18 09:54:43;;;;;;;8.97;3.47;;;;;;;17.93;38.97;102651.03;5263311;28;20098;-67
2023/05/18 09:57:19;;;;;;;9.60;3.50;;;;;;;18.75;36.79;102643.56;5264091;28;20028;-67
2023/05/18 10:00:02;;;;;;;12.13;3.65;;;;;;;18.91;34.16;102643.34;5263221;28;20025;-67
2023/05/18 10:02:37;;;;;;;10.90;3.83;;;;;;;19.06;35.06;102635.16;5264203;28;20033;-68
2023/05/18 10:05:19;;;;;;;13.27;3.97;;;;;;;20.43;34.26;102633.97;5263463;28;20036;-67
2023/05/18 10:07:50;;;;;;;11.17;4.70;;;;;;;20.36;32.05;102637.66;5264013;28;20073;-67
2023/05/18 10:10:24;;;;;;;10.43;3.70;;;;;;;20.99;31.40;102637.84;5263197;28;20151;-67
2023/05/18 10:12:59;;;;;;;8.45;3.30;;;;;;;21.10;31.94;102633.13;5264026;28;20376;-68
2023/05/18 10:15:32;;;;;;;14.38;3.70;;;;;;;21.44;31.00;102621.56;5263103;28;20120;-67
2023/05/18 10:18:06;;;;;;;12.23;3.92;;;;;;;20.81;30.83;102625.97;5263255;28;20033;-67
2023/05/18 10:20:38;;;;;;;13.32;4.20;;;;;;;19.89;32.72;102637.00;5263312;28;20530;-68
2023/05/18 10:23:10;;;;;;;10.00;3.88;;;;;;;19.90;31.36;102628.13;5262665;28;20024;-67
2023/05/18 10:25:44;;;;;;;11.07;3.75;;;;;;;20.64;32.01;102626.41;5263176;28;20041;-68
2023/05/18 10:28:26;;;;;;;10.07;3.92;;;;;;;20.82;30.72;102638.28;5262661;28;20464;-68
2023/05/18 10:30:59;;;;;;;10.53;3.47;;;;;;;21.84;29.85;102633.66;5263095;28;20025;-68
2023/05/18 10:33:31;;;;;;;8.05;3.45;;;;;;;21.45;30.02;102621.50;5263929;28;20048;-68
2023/05/18 10:36:04;;;;;;;8.73;3.35;;;;;;;21.34;31.15;102620.94;5262761;28;20060;-67
2023/05/18 10:38:41;;;;;;;12.35;4.20;;;;;;;21.99;29.72;102616.38;5261960;28;20447;-69
2023/05/18 10:41:13;;;;;;;13.27;5.18;;;;;;;22.97;28.45;102612.19;5262876;28;20059;-67
2023/05/18 10:43:46;;;;;;;10.73;4.00;;;;;;;22.80;27.20;102609.28;5262360;28;20053;-68
2023/05/18 10:46:20;;;;;;;10.73;4.47;;;;;;;23.66;28.06;102620.28;5260648;28;20365;-67
2023/05/18 10:48:52;;;;;;;9.20;3.33;;;;;;;23.61;27.76;102616.94;5262484;28;20029;-68
2023/05/18 10:51:25;;;;;;;9.60;3.17;;;;;;;24.07;25.32;102613.41;5262231;28;20060;-68
2023/05/18 10:54:11;;;;;;;12.13;3.60;;;;;;;24.81;26.61;102610.31;5268209;28;20480;-67
2023/05/18 10:56:46;;;;;;;10.02;3.40;;;;;;;24.00;26.03;102613.66;5277824;28;20029;-67
2023/05/18 10:59:19;;;;;;;8.50;3.92;;;;;;;22.16;27.04;102615.84;5262078;28;20095;-66
2023/05/18 11:01:52;;;;;;;10.50;4.00;;;;;;;21.01;28.58;102610.41;5263106;28;20140;-67
2023/05/18 11:04:28;;;;;;;10.80;4.07;;;;;;;21.68;30.98;102612.88;5262453;28;20032;-68
2023/05/18 11:07:01;;;;;;;9.52;3.97;;;;;;;22.12;29.81;102609.75;5262645;28;20102;-67
2023/05/18 11:09:32;;;;;;;9.32;3.40;;;;;;;22.28;28.15;102604.81;5262581;28;20041;-68
2023/05/18 11:12:14;;;;;;;9.13;4.30;;;;;;;23.72;27.74;102597.88;5262530;28;20444;-67
2023/05/18 11:14:53;;;;;;;10.65;4.10;;;;;;;23.60;25.99;102598.34;5262124;28;20464;-67
2023/05/18 11:17:28;;;;;;;7.25;3.80;;;;;;;24.07;25.88;102600.06;5262371;28;20093;-67
2023/05/18 11:20:10;;;;;;;11.93;4.20;;;;;;;24.20;25.27;102594.19;5262084;28;20029;-67
2023/05/18 11:22:50;;;;;;;9.50;3.50;;;;;;;24.26;26.31;102594.84;5262604;28;20040;-67
2023/05/18 11:25:24;;;;;;;11.27;3.85;;;;;;;22.57;24.92;102597.66;5262050;28;20369;-67
2023/05/18 11:28:04;;;;;;;8.00;3.83;;;;;;;21.84;27.62;102600.00;5262242;28;20035;-67
2023/05/18 11:30:35;;;;;;;11.07;4.30;;;;;;;21.43;27.50;102596.81;5261866;28;20029;-68
2023/05/18 11:33:10;;;;;;;11.60;4.40;;;;;;;20.84;29.44;102592.28;5262480;28;20475;-70
2023/05/18 11:36:08;;;;;;;11.68;4.38;;;;;;;21.05;29.70;102595.28;5261469;28;20025;-68
2023/05/18 11:39:02;;;;;;;10.95;4.70;;;;;;;20.82;31.09;102587.94;5262183;28;20074;-67
2023/05/18 11:41:40;;;;;;;9.40;3.80;;;;;;;20.91;30.38;102583.28;5261803;28;20028;-68
2023/05/18 11:44:12;;;;;;;12.65;4.40;;;;;;;20.66;32.98;102580.41;5261952;28;20032;-68
2023/05/18 11:47:03;;;;;;;12.02;4.45;;;;;;;21.31;31.33;102582.09;5261863;28;20032;-67
2023/05/18 11:49:42;;;;;;;11.63;4.78;;;;;;;20.83;31.62;102574.63;5261660;28;20431;-67
2023/05/18 11:52:21;;;;;;;9.80;4.55;;;;;;;19.52;31.86;102569.88;5262323;28;20021;-67
2023/05/18 11:54:59;;;;;;;11.27;4.63;;;;;;;19.50;31.80;102569.03;5259901;28;20472;-67